sensor_id;sensor_type;location;lat;lon;timestamp;temperature;humidity
51567;DHT22;37657;53.182;5.638;2022-12-07T00:01:46;5.20;99.90
51567;DHT22;37657;53.182;5.638;2022-12-07T00:04:14;5.20;99.90
51567;DHT22;37657;53.182;5.638;2022-12-07T00:06:45;5.00;99.90
51567;DHT22;37657;53.182;5.638;2022-12-07T00:09:13;5.10;99.90
51567;DHT22;37657;53.182;5.638;2022-12-07T00:11:39;5.10;99.90
51567;DHT22;37657;53.182;5.638;2022-12-07T00:14:07;5.20;99.90
51567;DHT22;37657;53.182;5.638;2022-12-07T00:16:34;5.30;99.90
51567;DHT22;37657;53.182;5.638;2022-12-07T00:19:00;5.20;99.90
51567;DHT22;37657;53.182;5.638;2022-12-07T00:21:28;5.30;99.90
51567;DHT22;37657;53.182;5.638;2022-12-07T00:23:54;5.20;99.90
51567;DHT22;37657;53.182;5.638;2022-12-07T00:26:31;5.20;99.90
51567;DHT22;37657;53.182;5.638;2022-12-07T00:28:59;5.10;99.90
51567;DHT22;37657;53.182;5.638;2022-12-07T00:31:27;5.10;99.90
51567;DHT22;37657;53.182;5.638;2022-12-07T00:33:53;5.20;99.90
51567;DHT22;37657;53.182;5.638;2022-12-07T00:36:21;5.20;99.90
51567;DHT22;37657;53.182;5.638;2022-12-07T00:38:47;5.30;99.90
51567;DHT22;37657;53.182;5.638;2022-12-07T00:41:15;5.20;99.90
51567;DHT22;37657;53.182;5.638;2022-12-07T00:43:42;5.20;99.90
51567;DHT22;37657;53.182;5.638;2022-12-07T00:46:09;5.10;99.90
51567;DHT22;37657;53.182;5.638;2022-12-07T00:48:35;5.10;99.90
51567;DHT22;37657;53.182;5.638;2022-12-07T00:51:01;5.00;99.90
51567;DHT22;37657;53.182;5.638;2022-12-07T00:53:27;5.50;99.90
51567;DHT22;37657;53.182;5.638;2022-12-07T00:55:53;4.90;99.90
51567;DHT22;37657;53.182;5.638;2022-12-07T00:58:20;4.90;99.90
51567;DHT22;37657;53.182;5.638;2022-12-07T01:00:46;4.90;99.90
51567;DHT22;37657;53.182;5.638;2022-12-07T01:03:13;5.00;99.90
51567;DHT22;37657;53.182;5.638;2022-12-07T01:05:39;4.90;99.90
51567;DHT22;37657;53.182;5.638;2022-12-07T01:08:05;5.00;99.90
51567;DHT22;37657;53.182;5.638;2022-12-07T01:10:31;5.00;99.90
51567;DHT22;37657;53.182;5.638;2022-12-07T01:12:58;5.00;99.90
51567;DHT22;37657;53.182;5.638;2022-12-07T01:15:24;5.20;99.90
51567;DHT22;37657;53.182;5.638;2022-12-07T01:17:50;5.20;99.90
51567;DHT22;37657;53.182;5.638;2022-12-07T01:20:16;5.20;99.90
51567;DHT22;37657;53.182;5.638;2022-12-07T01:22:43;5.20;99.90
51567;DHT22;37657;53.182;5.638;2022-12-07T01:25:10;5.30;99.90
51567;DHT22;37657;53.182;5.638;2022-12-07T01:27:37;5.00;99.90
51567;DHT22;37657;53.182;5.638;2022-12-07T01:30:05;5.00;99.90
51567;DHT22;37657;53.182;5.638;2022-12-07T01:32:31;4.80;99.90
51567;DHT22;37657;53.182;5.638;2022-12-07T01:34:57;4.70;99.90
51567;DHT22;37657;53.182;5.638;2022-12-07T01:37:22;4.70;99.90
51567;DHT22;37657;53.182;5.638;2022-12-07T01:39:51;4.90;99.90
51567;DHT22;37657;53.182;5.638;2022-12-07T01:42:18;5.10;99.90
51567;DHT22;37657;53.182;5.638;2022-12-07T01:47:50;5.40;99.90
51567;DHT22;37657;53.182;5.638;2022-12-07T01:50:17;5.50;99.90
51567;DHT22;37657;53.182;5.638;2022-12-07T01:52:45;5.40;99.90
51567;DHT22;37657;53.182;5.638;2022-12-07T01:55:15;5.60;99.90
51567;DHT22;37657;53.182;5.638;2022-12-07T01:57:43;5.60;99.90
51567;DHT22;37657;53.182;5.638;2022-12-07T02:00:11;5.50;99.90
51567;DHT22;37657;53.182;5.638;2022-12-07T02:02:59;5.50;99.90
51567;DHT22;37657;53.182;5.638;2022-12-07T02:05:27;5.50;99.90
51567;DHT22;37657;53.182;5.638;2022-12-07T02:07:55;5.60;99.90
51567;DHT22;37657;53.182;5.638;2022-12-07T02:10:27;5.60;99.90
51567;DHT22;37657;53.182;5.638;2022-12-07T02:21:07;5.30;99.90
51567;DHT22;37657;53.182;5.638;2022-12-07T02:32:06;5.70;99.90
51567;DHT22;37657;53.182;5.638;2022-12-07T02:34:51;5.80;99.90
51567;DHT22;37657;53.182;5.638;2022-12-07T02:37:34;5.80;99.90
51567;DHT22;37657;53.182;5.638;2022-12-07T02:42:44;5.70;99.90
51567;DHT22;37657;53.182;5.638;2022-12-07T02:45:13;5.60;99.90
51567;DHT22;37657;53.182;5.638;2022-12-07T02:47:39;5.50;99.90
51567;DHT22;37657;53.182;5.638;2022-12-07T02:50:07;5.40;99.90
51567;DHT22;37657;53.182;5.638;2022-12-07T02:52:32;5.30;99.90
51567;DHT22;37657;53.182;5.638;2022-12-07T02:54:58;5.30;99.90
51567;DHT22;37657;53.182;5.638;2022-12-07T02:57:35;5.10;99.90
51567;DHT22;37657;53.182;5.638;2022-12-07T03:00:08;5.10;99.90
51567;DHT22;37657;53.182;5.638;2022-12-07T03:05:43;5.30;99.90
51567;DHT22;37657;53.182;5.638;2022-12-07T03:11:08;5.40;99.90
51567;DHT22;37657;53.182;5.638;2022-12-07T03:13:56;5.50;99.90
51567;DHT22;37657;53.182;5.638;2022-12-07T03:16:34;5.50;99.90
51567;DHT22;37657;53.182;5.638;2022-12-07T03:19:14;5.50;99.90
51567;DHT22;37657;53.182;5.638;2022-12-07T03:21:44;5.50;99.90
51567;DHT22;37657;53.182;5.638;2022-12-07T03:24:17;5.60;99.90
51567;DHT22;37657;53.182;5.638;2022-12-07T03:27:03;5.60;99.90
51567;DHT22;37657;53.182;5.638;2022-12-07T03:29:54;5.50;99.90
51567;DHT22;37657;53.182;5.638;2022-12-07T03:32:38;5.40;99.90
51567;DHT22;37657;53.182;5.638;2022-12-07T03:35:28;5.30;99.90
51567;DHT22;37657;53.182;5.638;2022-12-07T03:38:04;5.20;99.90
51567;DHT22;37657;53.182;5.638;2022-12-07T03:40:44;5.20;99.90
51567;DHT22;37657;53.182;5.638;2022-12-07T03:43:10;5.30;99.90
51567;DHT22;37657;53.182;5.638;2022-12-07T03:45:42;5.30;99.90
51567;DHT22;37657;53.182;5.638;2022-12-07T03:54:14;5.50;99.90
51567;DHT22;37657;53.182;5.638;2022-12-07T03:56:42;5.50;99.90
51567;DHT22;37657;53.182;5.638;2022-12-07T03:59:08;5.40;99.90
51567;DHT22;37657;53.182;5.638;2022-12-07T04:01:34;5.30;99.90
51567;DHT22;37657;53.182;5.638;2022-12-07T04:03:59;5.20;99.90
51567;DHT22;37657;53.182;5.638;2022-12-07T04:06:25;5.20;99.90
51567;DHT22;37657;53.182;5.638;2022-12-07T04:08:50;5.20;99.90
51567;DHT22;37657;53.182;5.638;2022-12-07T04:11:16;5.20;99.90
51567;DHT22;37657;53.182;5.638;2022-12-07T04:13:42;5.20;99.90
51567;DHT22;37657;53.182;5.638;2022-12-07T04:16:26;5.10;99.90
51567;DHT22;37657;53.182;5.638;2022-12-07T04:18:52;5.10;99.90
51567;DHT22;37657;53.182;5.638;2022-12-07T04:21:17;5.00;99.90
51567;DHT22;37657;53.182;5.638;2022-12-07T04:23:43;5.00;99.90
51567;DHT22;37657;53.182;5.638;2022-12-07T04:26:08;5.10;99.90
51567;DHT22;37657;53.182;5.638;2022-12-07T04:28:34;5.00;99.90
51567;DHT22;37657;53.182;5.638;2022-12-07T04:30:59;5.10;99.90
51567;DHT22;37657;53.182;5.638;2022-12-07T04:33:25;5.10;99.90
51567;DHT22;37657;53.182;5.638;2022-12-07T04:35:50;5.10;99.90
51567;DHT22;37657;53.182;5.638;2022-12-07T04:38:16;5.10;99.90
51567;DHT22;37657;53.182;5.638;2022-12-07T04:40:41;4.90;99.90
51567;DHT22;37657;53.182;5.638;2022-12-07T04:43:07;4.90;99.90
51567;DHT22;37657;53.182;5.638;2022-12-07T04:45:32;4.90;99.90
51567;DHT22;37657;53.182;5.638;2022-12-07T04:47:58;5.00;99.90
51567;DHT22;37657;53.182;5.638;2022-12-07T04:50:23;5.20;99.90
51567;DHT22;37657;53.182;5.638;2022-12-07T04:52:49;5.40;99.90
51567;DHT22;37657;53.182;5.638;2022-12-07T04:55:14;5.50;99.90
51567;DHT22;37657;53.182;5.638;2022-12-07T04:57:40;5.40;99.90
51567;DHT22;37657;53.182;5.638;2022-12-07T05:00:06;5.30;99.90
51567;DHT22;37657;53.182;5.638;2022-12-07T05:02:32;5.10;99.90
51567;DHT22;37657;53.182;5.638;2022-12-07T05:04:57;5.00;99.90
51567;DHT22;37657;53.182;5.638;2022-12-07T05:07:23;4.80;99.90
51567;DHT22;37657;53.182;5.638;2022-12-07T05:09:48;4.90;99.90
51567;DHT22;37657;53.182;5.638;2022-12-07T05:12:14;4.90;99.90
51567;DHT22;37657;53.182;5.638;2022-12-07T05:14:39;4.70;99.90
51567;DHT22;37657;53.182;5.638;2022-12-07T05:17:05;4.90;99.90
51567;DHT22;37657;53.182;5.638;2022-12-07T05:19:30;4.70;99.90
51567;DHT22;37657;53.182;5.638;2022-12-07T05:21:56;4.70;99.90
51567;DHT22;37657;53.182;5.638;2022-12-07T05:24:22;4.70;99.90
51567;DHT22;37657;53.182;5.638;2022-12-07T05:26:48;4.70;99.90
51567;DHT22;37657;53.182;5.638;2022-12-07T05:29:15;4.70;99.90
51567;DHT22;37657;53.182;5.638;2022-12-07T05:31:41;4.70;99.90
51567;DHT22;37657;53.182;5.638;2022-12-07T05:34:07;4.50;99.90
51567;DHT22;37657;53.182;5.638;2022-12-07T05:36:33;4.40;99.90
51567;DHT22;37657;53.182;5.638;2022-12-07T05:38:59;4.40;99.90
51567;DHT22;37657;53.182;5.638;2022-12-07T05:41:25;4.40;99.90
51567;DHT22;37657;53.182;5.638;2022-12-07T05:44:09;4.30;99.90
51567;DHT22;37657;53.182;5.638;2022-12-07T05:46:35;4.10;99.90
51567;DHT22;37657;53.182;5.638;2022-12-07T05:49:01;4.00;99.90
51567;DHT22;37657;53.182;5.638;2022-12-07T05:51:27;3.90;99.90
51567;DHT22;37657;53.182;5.638;2022-12-07T05:53:53;3.80;99.90
51567;DHT22;37657;53.182;5.638;2022-12-07T05:56:18;3.90;99.90
51567;DHT22;37657;53.182;5.638;2022-12-07T05:58:44;3.90;99.90
51567;DHT22;37657;53.182;5.638;2022-12-07T06:01:28;3.90;99.90
51567;DHT22;37657;53.182;5.638;2022-12-07T06:03:54;4.10;99.90
51567;DHT22;37657;53.182;5.638;2022-12-07T06:06:19;4.00;99.90
51567;DHT22;37657;53.182;5.638;2022-12-07T06:08:45;4.10;99.90
51567;DHT22;37657;53.182;5.638;2022-12-07T06:11:10;4.00;99.90
51567;DHT22;37657;53.182;5.638;2022-12-07T06:13:54;4.20;99.90
51567;DHT22;37657;53.182;5.638;2022-12-07T06:16:20;4.10;99.90
51567;DHT22;37657;53.182;5.638;2022-12-07T06:18:45;4.30;99.90
51567;DHT22;37657;53.182;5.638;2022-12-07T06:21:11;4.10;99.90
51567;DHT22;37657;53.182;5.638;2022-12-07T06:23:37;4.40;99.90
51567;DHT22;37657;53.182;5.638;2022-12-07T06:26:02;4.30;99.90
51567;DHT22;37657;53.182;5.638;2022-12-07T06:28:28;4.50;99.90
51567;DHT22;37657;53.182;5.638;2022-12-07T06:31:01;4.20;99.90
51567;DHT22;37657;53.182;5.638;2022-12-07T06:33:28;4.30;99.90
51567;DHT22;37657;53.182;5.638;2022-12-07T06:35:54;4.10;99.90
51567;DHT22;37657;53.182;5.638;2022-12-07T06:38:20;4.20;99.90
51567;DHT22;37657;53.182;5.638;2022-12-07T06:40:46;4.10;99.90
51567;DHT22;37657;53.182;5.638;2022-12-07T06:43:11;4.20;99.90
51567;DHT22;37657;53.182;5.638;2022-12-07T06:45:37;4.10;99.90
51567;DHT22;37657;53.182;5.638;2022-12-07T06:48:03;4.30;99.90
51567;DHT22;37657;53.182;5.638;2022-12-07T06:50:28;4.40;99.90
51567;DHT22;37657;53.182;5.638;2022-12-07T06:52:54;4.50;99.90
51567;DHT22;37657;53.182;5.638;2022-12-07T06:55:19;4.60;99.90
51567;DHT22;37657;53.182;5.638;2022-12-07T06:57:45;4.60;99.90
51567;DHT22;37657;53.182;5.638;2022-12-07T07:00:11;4.80;99.90
51567;DHT22;37657;53.182;5.638;2022-12-07T07:02:37;4.80;99.90
51567;DHT22;37657;53.182;5.638;2022-12-07T07:05:03;4.90;99.90
51567;DHT22;37657;53.182;5.638;2022-12-07T07:07:28;4.80;99.90
51567;DHT22;37657;53.182;5.638;2022-12-07T07:09:55;5.10;99.90
51567;DHT22;37657;53.182;5.638;2022-12-07T07:12:20;5.10;99.90
51567;DHT22;37657;53.182;5.638;2022-12-07T07:14:46;5.10;99.90
51567;DHT22;37657;53.182;5.638;2022-12-07T07:17:12;5.10;99.90
51567;DHT22;37657;53.182;5.638;2022-12-07T07:19:38;5.00;99.90
51567;DHT22;37657;53.182;5.638;2022-12-07T07:22:04;5.00;99.90
51567;DHT22;37657;53.182;5.638;2022-12-07T07:24:30;4.80;99.90
51567;DHT22;37657;53.182;5.638;2022-12-07T07:26:55;4.70;99.90
51567;DHT22;37657;53.182;5.638;2022-12-07T07:29:21;4.70;99.90
51567;DHT22;37657;53.182;5.638;2022-12-07T07:31:47;4.70;99.90
51567;DHT22;37657;53.182;5.638;2022-12-07T07:34:12;4.60;99.90
51567;DHT22;37657;53.182;5.638;2022-12-07T07:36:38;4.60;99.90
51567;DHT22;37657;53.182;5.638;2022-12-07T07:39:03;4.50;99.90
51567;DHT22;37657;53.182;5.638;2022-12-07T07:41:30;4.50;99.90
51567;DHT22;37657;53.182;5.638;2022-12-07T07:43:56;4.40;99.90
51567;DHT22;37657;53.182;5.638;2022-12-07T07:46:21;4.40;99.90
51567;DHT22;37657;53.182;5.638;2022-12-07T07:48:47;4.40;99.90
51567;DHT22;37657;53.182;5.638;2022-12-07T07:51:12;4.40;99.90
51567;DHT22;37657;53.182;5.638;2022-12-07T07:53:38;4.50;99.90
51567;DHT22;37657;53.182;5.638;2022-12-07T07:56:03;4.40;99.90
51567;DHT22;37657;53.182;5.638;2022-12-07T07:58:29;4.30;99.90
51567;DHT22;37657;53.182;5.638;2022-12-07T08:00:54;4.30;99.90
51567;DHT22;37657;53.182;5.638;2022-12-07T08:03:20;4.30;99.90
51567;DHT22;37657;53.182;5.638;2022-12-07T08:05:46;4.30;99.90
51567;DHT22;37657;53.182;5.638;2022-12-07T08:08:11;4.50;99.90
51567;DHT22;37657;53.182;5.638;2022-12-07T08:10:37;4.80;99.90
51567;DHT22;37657;53.182;5.638;2022-12-07T08:13:03;4.90;99.90
51567;DHT22;37657;53.182;5.638;2022-12-07T08:15:43;5.00;99.90
51567;DHT22;37657;53.182;5.638;2022-12-07T08:18:09;4.80;99.90
51567;DHT22;37657;53.182;5.638;2022-12-07T08:20:36;4.80;99.90
51567;DHT22;37657;53.182;5.638;2022-12-07T08:23:01;4.50;99.90
51567;DHT22;37657;53.182;5.638;2022-12-07T08:25:28;4.50;99.90
51567;DHT22;37657;53.182;5.638;2022-12-07T08:27:53;4.40;99.90
51567;DHT22;37657;53.182;5.638;2022-12-07T08:30:20;4.20;99.90
51567;DHT22;37657;53.182;5.638;2022-12-07T08:32:46;4.30;99.90
51567;DHT22;37657;53.182;5.638;2022-12-07T08:35:12;4.20;99.90
51567;DHT22;37657;53.182;5.638;2022-12-07T08:37:38;4.30;99.90
51567;DHT22;37657;53.182;5.638;2022-12-07T08:40:10;4.10;99.90
51567;DHT22;37657;53.182;5.638;2022-12-07T08:42:36;4.10;99.90
51567;DHT22;37657;53.182;5.638;2022-12-07T08:45:11;4.20;99.90
51567;DHT22;37657;53.182;5.638;2022-12-07T08:47:46;4.20;99.90
51567;DHT22;37657;53.182;5.638;2022-12-07T08:50:14;4.20;99.90
51567;DHT22;37657;53.182;5.638;2022-12-07T08:52:40;4.00;99.90
51567;DHT22;37657;53.182;5.638;2022-12-07T08:55:07;4.00;99.90
51567;DHT22;37657;53.182;5.638;2022-12-07T08:57:34;4.00;99.90
51567;DHT22;37657;53.182;5.638;2022-12-07T09:00:01;4.00;99.90
51567;DHT22;37657;53.182;5.638;2022-12-07T09:02:27;4.10;99.90
51567;DHT22;37657;53.182;5.638;2022-12-07T09:04:53;4.20;99.90
51567;DHT22;37657;53.182;5.638;2022-12-07T09:07:18;4.20;99.90
51567;DHT22;37657;53.182;5.638;2022-12-07T09:09:44;4.10;99.90
51567;DHT22;37657;53.182;5.638;2022-12-07T09:12:09;4.30;99.90
51567;DHT22;37657;53.182;5.638;2022-12-07T09:14:36;4.40;99.90
51567;DHT22;37657;53.182;5.638;2022-12-07T09:17:09;4.40;99.90
51567;DHT22;37657;53.182;5.638;2022-12-07T09:19:35;4.50;99.90
51567;DHT22;37657;53.182;5.638;2022-12-07T09:22:01;4.80;99.90
51567;DHT22;37657;53.182;5.638;2022-12-07T09:24:26;4.80;99.90
51567;DHT22;37657;53.182;5.638;2022-12-07T09:26:52;4.90;99.90
51567;DHT22;37657;53.182;5.638;2022-12-07T09:29:17;4.80;99.90
51567;DHT22;37657;53.182;5.638;2022-12-07T09:31:43;4.80;99.90
51567;DHT22;37657;53.182;5.638;2022-12-07T09:34:08;4.80;99.90
51567;DHT22;37657;53.182;5.638;2022-12-07T09:36:34;4.70;99.90
51567;DHT22;37657;53.182;5.638;2022-12-07T09:39:00;4.60;99.90
51567;DHT22;37657;53.182;5.638;2022-12-07T09:41:27;4.60;99.90
51567;DHT22;37657;53.182;5.638;2022-12-07T09:44:04;4.80;99.90
51567;DHT22;37657;53.182;5.638;2022-12-07T09:48:57;5.20;99.90
51567;DHT22;37657;53.182;5.638;2022-12-07T09:51:23;5.30;99.90
51567;DHT22;37657;53.182;5.638;2022-12-07T09:53:50;5.40;99.90
51567;DHT22;37657;53.182;5.638;2022-12-07T09:56:17;5.60;99.90
51567;DHT22;37657;53.182;5.638;2022-12-07T09:58:44;5.70;99.90
51567;DHT22;37657;53.182;5.638;2022-12-07T10:01:17;5.80;99.90
51567;DHT22;37657;53.182;5.638;2022-12-07T10:03:55;5.80;99.90
51567;DHT22;37657;53.182;5.638;2022-12-07T10:06:21;6.00;99.90
51567;DHT22;37657;53.182;5.638;2022-12-07T10:08:47;6.10;99.90
51567;DHT22;37657;53.182;5.638;2022-12-07T10:11:13;6.10;99.90
51567;DHT22;37657;53.182;5.638;2022-12-07T10:13:46;6.20;99.90
51567;DHT22;37657;53.182;5.638;2022-12-07T10:16:38;6.30;99.90
51567;DHT22;37657;53.182;5.638;2022-12-07T10:19:25;6.40;99.90
51567;DHT22;37657;53.182;5.638;2022-12-07T10:24:29;6.30;99.90
51567;DHT22;37657;53.182;5.638;2022-12-07T10:26:55;6.30;99.90
51567;DHT22;37657;53.182;5.638;2022-12-07T10:29:33;6.40;99.90
51567;DHT22;37657;53.182;5.638;2022-12-07T10:32:02;6.40;99.90
51567;DHT22;37657;53.182;5.638;2022-12-07T10:34:37;6.30;99.90
51567;DHT22;37657;53.182;5.638;2022-12-07T10:39:46;6.20;99.90
51567;DHT22;37657;53.182;5.638;2022-12-07T10:42:29;6.10;99.90
51567;DHT22;37657;53.182;5.638;2022-12-07T10:45:16;6.10;99.90
51567;DHT22;37657;53.182;5.638;2022-12-07T10:50:39;6.10;99.90
51567;DHT22;37657;53.182;5.638;2022-12-07T10:56:11;6.10;99.90
51567;DHT22;37657;53.182;5.638;2022-12-07T10:59:00;6.10;99.90
51567;DHT22;37657;53.182;5.638;2022-12-07T11:01:34;6.10;99.90
51567;DHT22;37657;53.182;5.638;2022-12-07T11:04:33;6.10;99.90
51567;DHT22;37657;53.182;5.638;2022-12-07T11:07:20;6.10;99.90
51567;DHT22;37657;53.182;5.638;2022-12-07T11:18:20;6.40;99.90
51567;DHT22;37657;53.182;5.638;2022-12-07T11:21:18;6.30;99.90
51567;DHT22;37657;53.182;5.638;2022-12-07T11:29:59;6.10;99.90
51567;DHT22;37657;53.182;5.638;2022-12-07T11:32:59;6.10;99.90
51567;DHT22;37657;53.182;5.638;2022-12-07T11:38:15;6.10;99.90
51567;DHT22;37657;53.182;5.638;2022-12-07T11:40:53;6.20;99.90
51567;DHT22;37657;53.182;5.638;2022-12-07T11:43:28;6.30;99.90
51567;DHT22;37657;53.182;5.638;2022-12-07T11:46:05;6.40;99.90
51567;DHT22;37657;53.182;5.638;2022-12-07T11:51:21;6.40;99.90
51567;DHT22;37657;53.182;5.638;2022-12-07T11:54:01;6.40;99.90
51567;DHT22;37657;53.182;5.638;2022-12-07T11:56:30;6.40;99.90
51567;DHT22;37657;53.182;5.638;2022-12-07T11:59:13;6.50;99.90
51567;DHT22;37657;53.182;5.638;2022-12-07T12:07:06;6.60;99.90
51567;DHT22;37657;53.182;5.638;2022-12-07T12:09:44;6.60;99.90
51567;DHT22;37657;53.182;5.638;2022-12-07T12:12:27;6.50;99.90
51567;DHT22;37657;53.182;5.638;2022-12-07T12:15:15;6.40;99.90
51567;DHT22;37657;53.182;5.638;2022-12-07T12:23:21;6.30;99.90
51567;DHT22;37657;53.182;5.638;2022-12-07T12:25:49;6.30;99.90
51567;DHT22;37657;53.182;5.638;2022-12-07T12:31:28;6.30;99.90
51567;DHT22;37657;53.182;5.638;2022-12-07T12:34:01;6.20;99.90
51567;DHT22;37657;53.182;5.638;2022-12-07T12:41:52;6.30;99.90
51567;DHT22;37657;53.182;5.638;2022-12-07T12:59:32;5.90;99.90
51567;DHT22;37657;53.182;5.638;2022-12-07T13:05:02;5.60;99.90
51567;DHT22;37657;53.182;5.638;2022-12-07T13:12:56;5.50;99.90
51567;DHT22;37657;53.182;5.638;2022-12-07T13:18:14;5.50;99.90
51567;DHT22;37657;53.182;5.638;2022-12-07T13:23:18;5.60;99.90
51567;DHT22;37657;53.182;5.638;2022-12-07T13:28:37;5.80;99.90
51567;DHT22;37657;53.182;5.638;2022-12-07T13:33:49;5.70;99.90
51567;DHT22;37657;53.182;5.638;2022-12-07T13:36:23;5.60;99.90
51567;DHT22;37657;53.182;5.638;2022-12-07T13:39:01;5.50;99.90
51567;DHT22;37657;53.182;5.638;2022-12-07T13:41:35;5.50;99.90
51567;DHT22;37657;53.182;5.638;2022-12-07T13:44:02;5.30;99.90
51567;DHT22;37657;53.182;5.638;2022-12-07T13:46:40;5.20;99.90
51567;DHT22;37657;53.182;5.638;2022-12-07T13:49:28;5.10;99.90
51567;DHT22;37657;53.182;5.638;2022-12-07T13:52:23;5.10;99.90
51567;DHT22;37657;53.182;5.638;2022-12-07T13:57:31;5.00;99.90
51567;DHT22;37657;53.182;5.638;2022-12-07T14:00:00;4.90;99.90
51567;DHT22;37657;53.182;5.638;2022-12-07T14:02:27;4.90;99.90
51567;DHT22;37657;53.182;5.638;2022-12-07T14:05:13;4.90;99.90
51567;DHT22;37657;53.182;5.638;2022-12-07T14:10:40;4.90;99.90
51567;DHT22;37657;53.182;5.638;2022-12-07T14:13:39;4.90;99.90
51567;DHT22;37657;53.182;5.638;2022-12-07T14:18:44;4.80;99.90
51567;DHT22;37657;53.182;5.638;2022-12-07T14:23:36;4.80;99.90
51567;DHT22;37657;53.182;5.638;2022-12-07T14:26:13;4.70;99.90
51567;DHT22;37657;53.182;5.638;2022-12-07T14:28:40;4.80;99.90
51567;DHT22;37657;53.182;5.638;2022-12-07T14:31:24;4.70;99.90
51567;DHT22;37657;53.182;5.638;2022-12-07T14:33:50;4.90;99.90
51567;DHT22;37657;53.182;5.638;2022-12-07T14:36:16;4.80;99.90
51567;DHT22;37657;53.182;5.638;2022-12-07T14:38:41;4.70;99.90
51567;DHT22;37657;53.182;5.638;2022-12-07T14:41:14;4.70;99.90
51567;DHT22;37657;53.182;5.638;2022-12-07T14:43:59;4.70;99.90
51567;DHT22;37657;53.182;5.638;2022-12-07T14:46:25;4.60;99.90
51567;DHT22;37657;53.182;5.638;2022-12-07T14:48:50;4.70;99.90
51567;DHT22;37657;53.182;5.638;2022-12-07T14:51:16;4.50;99.90
51567;DHT22;37657;53.182;5.638;2022-12-07T14:53:47;4.50;99.90
51567;DHT22;37657;53.182;5.638;2022-12-07T14:56:13;4.50;99.90
51567;DHT22;37657;53.182;5.638;2022-12-07T14:58:41;4.40;99.90
51567;DHT22;37657;53.182;5.638;2022-12-07T15:01:07;4.30;99.90
51567;DHT22;37657;53.182;5.638;2022-12-07T15:03:33;4.30;99.90
51567;DHT22;37657;53.182;5.638;2022-12-07T15:06:05;4.30;99.90
51567;DHT22;37657;53.182;5.638;2022-12-07T15:08:30;4.60;99.90
51567;DHT22;37657;53.182;5.638;2022-12-07T15:10:56;4.90;99.90
51567;DHT22;37657;53.182;5.638;2022-12-07T15:13:22;4.90;99.90
51567;DHT22;37657;53.182;5.638;2022-12-07T15:16:10;5.10;99.90
51567;DHT22;37657;53.182;5.638;2022-12-07T15:18:36;5.00;99.90
51567;DHT22;37657;53.182;5.638;2022-12-07T15:21:03;4.80;99.90
51567;DHT22;37657;53.182;5.638;2022-12-07T15:23:28;4.80;99.90
51567;DHT22;37657;53.182;5.638;2022-12-07T15:25:54;4.80;99.90
51567;DHT22;37657;53.182;5.638;2022-12-07T15:28:19;4.70;99.90
51567;DHT22;37657;53.182;5.638;2022-12-07T15:30:45;4.60;99.90
51567;DHT22;37657;53.182;5.638;2022-12-07T15:33:11;4.60;99.90
51567;DHT22;37657;53.182;5.638;2022-12-07T15:35:41;4.60;99.90
51567;DHT22;37657;53.182;5.638;2022-12-07T15:38:08;4.50;99.90
51567;DHT22;37657;53.182;5.638;2022-12-07T15:40:33;4.40;99.90
51567;DHT22;37657;53.182;5.638;2022-12-07T15:43:00;4.40;99.90
51567;DHT22;37657;53.182;5.638;2022-12-07T15:45:26;4.30;99.90
51567;DHT22;37657;53.182;5.638;2022-12-07T15:47:51;4.30;99.90
51567;DHT22;37657;53.182;5.638;2022-12-07T15:50:17;4.30;99.90
51567;DHT22;37657;53.182;5.638;2022-12-07T15:52:43;4.20;99.90
51567;DHT22;37657;53.182;5.638;2022-12-07T15:55:10;4.20;99.90
51567;DHT22;37657;53.182;5.638;2022-12-07T15:57:37;4.00;99.90
51567;DHT22;37657;53.182;5.638;2022-12-07T16:00:05;4.10;99.90
51567;DHT22;37657;53.182;5.638;2022-12-07T16:02:31;4.00;99.90
51567;DHT22;37657;53.182;5.638;2022-12-07T16:04:56;4.00;99.90
51567;DHT22;37657;53.182;5.638;2022-12-07T16:07:22;4.10;99.90
51567;DHT22;37657;53.182;5.638;2022-12-07T16:09:48;4.10;99.90
51567;DHT22;37657;53.182;5.638;2022-12-07T16:12:15;4.20;99.90
51567;DHT22;37657;53.182;5.638;2022-12-07T16:14:41;4.40;99.90
51567;DHT22;37657;53.182;5.638;2022-12-07T16:17:08;4.40;99.90
51567;DHT22;37657;53.182;5.638;2022-12-07T16:19:35;4.50;99.90
51567;DHT22;37657;53.182;5.638;2022-12-07T16:22:01;4.30;99.90
51567;DHT22;37657;53.182;5.638;2022-12-07T16:24:26;4.40;99.90
51567;DHT22;37657;53.182;5.638;2022-12-07T16:26:52;4.30;99.90
51567;DHT22;37657;53.182;5.638;2022-12-07T16:29:19;4.20;99.90
51567;DHT22;37657;53.182;5.638;2022-12-07T16:31:46;4.20;99.90
51567;DHT22;37657;53.182;5.638;2022-12-07T16:34:12;4.30;99.90
51567;DHT22;37657;53.182;5.638;2022-12-07T16:36:37;4.20;99.90
51567;DHT22;37657;53.182;5.638;2022-12-07T16:39:04;4.20;99.90
51567;DHT22;37657;53.182;5.638;2022-12-07T16:41:30;4.30;99.90
51567;DHT22;37657;53.182;5.638;2022-12-07T16:43:55;4.20;99.90
51567;DHT22;37657;53.182;5.638;2022-12-07T16:46:21;4.30;99.90
51567;DHT22;37657;53.182;5.638;2022-12-07T16:48:47;4.20;99.90
51567;DHT22;37657;53.182;5.638;2022-12-07T16:51:13;4.30;99.90
51567;DHT22;37657;53.182;5.638;2022-12-07T16:53:41;4.20;99.90
51567;DHT22;37657;53.182;5.638;2022-12-07T16:56:16;4.20;99.90
51567;DHT22;37657;53.182;5.638;2022-12-07T16:58:42;4.20;99.90
51567;DHT22;37657;53.182;5.638;2022-12-07T17:01:10;4.20;99.90
51567;DHT22;37657;53.182;5.638;2022-12-07T17:03:35;4.20;99.90
51567;DHT22;37657;53.182;5.638;2022-12-07T17:06:01;4.30;99.90
51567;DHT22;37657;53.182;5.638;2022-12-07T17:08:26;4.30;99.90
51567;DHT22;37657;53.182;5.638;2022-12-07T17:10:52;4.20;99.90
51567;DHT22;37657;53.182;5.638;2022-12-07T17:13:17;4.30;99.90
51567;DHT22;37657;53.182;5.638;2022-12-07T17:16:03;4.40;99.90
51567;DHT22;37657;53.182;5.638;2022-12-07T17:18:34;4.30;99.90
51567;DHT22;37657;53.182;5.638;2022-12-07T17:21:08;4.30;99.90
51567;DHT22;37657;53.182;5.638;2022-12-07T17:23:34;4.10;99.90
51567;DHT22;37657;53.182;5.638;2022-12-07T17:26:12;4.10;99.90
51567;DHT22;37657;53.182;5.638;2022-12-07T17:28:38;4.20;99.90
51567;DHT22;37657;53.182;5.638;2022-12-07T17:31:05;4.20;99.90
51567;DHT22;37657;53.182;5.638;2022-12-07T17:33:32;4.10;99.90
51567;DHT22;37657;53.182;5.638;2022-12-07T17:35:58;4.20;99.90
51567;DHT22;37657;53.182;5.638;2022-12-07T17:38:24;4.10;99.90
51567;DHT22;37657;53.182;5.638;2022-12-07T17:40:50;4.00;99.90
51567;DHT22;37657;53.182;5.638;2022-12-07T17:43:15;4.00;99.90
51567;DHT22;37657;53.182;5.638;2022-12-07T17:45:41;4.00;99.90
51567;DHT22;37657;53.182;5.638;2022-12-07T17:48:06;3.90;99.90
51567;DHT22;37657;53.182;5.638;2022-12-07T17:50:32;3.90;99.90
51567;DHT22;37657;53.182;5.638;2022-12-07T17:53:18;3.90;99.90
51567;DHT22;37657;53.182;5.638;2022-12-07T17:55:43;3.90;99.90
51567;DHT22;37657;53.182;5.638;2022-12-07T17:58:09;3.90;99.90
51567;DHT22;37657;53.182;5.638;2022-12-07T18:00:35;3.80;99.90
51567;DHT22;37657;53.182;5.638;2022-12-07T18:03:05;3.80;99.90
51567;DHT22;37657;53.182;5.638;2022-12-07T18:05:32;3.80;99.90
51567;DHT22;37657;53.182;5.638;2022-12-07T18:07:57;4.00;99.90
51567;DHT22;37657;53.182;5.638;2022-12-07T18:10:23;3.90;99.90